aviador You're here:

VHHH Decoded Metar

HONG KONG in HONG KONG
Report Time2017-12-15 17:30:00
UTC Time2017-12-15 17:53:27
Flight Rules vfr VFR
Wind330° at 17 kt
W.Decomp.*RWY 25: 2.4 kt HW 16.8 kt RCW
W.Rank330° ranks 18
Current wind is above 330° avg. (8.9)
Visibility9999 m
Phenomena:N/A
Clouds:Few 020 Hf
Scattered 030 Hf
Expected CloudBase > 1,600 ft AGL from Temp-Dew spread
CeilingNone
Temp18°C (ISA +3)
Dew Point14°C (78% RH)
AAT13.2°C
QNH1021 hPa
Density Alt335 ft
Elevation30 ft
Report Wrong Elevation
Raw Report
METAR VHHH 151730Z 33017KT 9999 FEW020 SCT030 18/14 Q1021 NOSIG=

Extra information for VHHH:More info

Metar Taf Metar & Taf Last 4 Metars F.Rules Stats Wind Profile Meteogram Temp Stats Airport Information Weather charts Add Link Nearby VenuesMetar ALERT Operation Metar Decoded Social comments